createdAt,value
2022-10-11T00:00:32.158Z,44.31
2022-10-11T00:01:32.157Z,42.86
2022-10-11T00:02:32.135Z,53.17
2022-10-11T00:03:32.100Z,45.76
2022-10-11T00:04:32.119Z,44.96
2022-10-11T00:05:32.113Z,44.96
2022-10-11T00:06:32.071Z,48.18
2022-10-11T00:07:32.136Z,52.05
2022-10-11T00:08:32.058Z,45.60
2022-10-11T00:09:32.050Z,45.44
2022-10-11T00:10:32.073Z,42.22
2022-10-11T00:11:32.078Z,43.83
2022-10-11T00:12:32.013Z,52.21
2022-10-11T00:13:32.016Z,45.76
2022-10-11T00:14:32.000Z,47.86
2022-10-11T00:15:31.974Z,42.38
2022-10-11T00:16:32.024Z,45.92
2022-10-11T00:17:31.964Z,45.92
2022-10-11T00:18:32.002Z,43.99
2022-10-11T00:19:31.971Z,44.96
2022-10-11T00:20:31.951Z,42.70
2022-10-11T00:21:31.943Z,42.54
2022-10-11T00:22:31.926Z,46.41
2022-10-11T00:23:31.920Z,43.67
2022-10-11T00:24:31.928Z,47.70
2022-10-11T00:25:31.893Z,44.63
2022-10-11T00:26:31.876Z,45.28
2022-10-11T00:27:31.862Z,43.99
2022-10-11T00:28:31.931Z,44.96
2022-10-11T00:29:31.868Z,43.02
2022-10-11T00:30:31.842Z,47.53
2022-10-11T00:31:35.521Z,43.02
2022-10-11T00:32:31.833Z,47.70
2022-10-11T00:33:31.808Z,45.92
2022-10-11T00:34:31.819Z,43.67
2022-10-11T00:35:31.784Z,46.73
2022-10-11T00:36:31.820Z,43.34
2022-10-11T00:37:31.761Z,44.96
2022-10-11T00:38:32.178Z,46.25
2022-10-11T00:39:31.777Z,45.92
2022-10-11T00:40:31.776Z,41.89
2022-10-11T00:41:31.768Z,44.79
2022-10-11T00:42:31.740Z,41.25
2022-10-11T00:43:31.696Z,45.28
2022-10-11T00:44:31.714Z,64.94
2022-10-11T00:45:31.742Z,43.99
2022-10-11T00:46:31.708Z,43.83
2022-10-11T00:47:31.688Z,44.31
2022-10-11T00:48:31.660Z,44.15
2022-10-11T00:49:31.634Z,45.12
2022-10-11T00:50:31.673Z,50.92
2022-10-11T00:51:32.656Z,47.21
2022-10-11T00:52:31.651Z,57.69
2022-10-11T00:53:31.663Z,51.72
2022-10-11T00:54:31.620Z,60.75
2022-10-11T00:55:31.597Z,59.46
2022-10-11T00:56:31.627Z,44.63
2022-10-11T00:57:31.571Z,46.89
2022-10-11T00:58:31.556Z,42.38
2022-10-11T00:59:31.564Z,43.99
2022-10-11T01:00:31.568Z,43.34
2022-10-11T01:01:31.588Z,43.02
2022-10-11T01:02:31.554Z,49.15
2022-10-11T01:03:31.533Z,44.79
2022-10-11T01:04:31.573Z,52.05
2022-10-11T01:05:31.486Z,53.66
2022-10-11T01:06:31.506Z,49.79
2022-10-11T01:07:31.461Z,50.43
2022-10-11T01:08:31.479Z,42.70
2022-10-11T01:09:31.473Z,44.47
2022-10-11T01:10:31.438Z,44.79
2022-10-11T01:11:31.468Z,45.28
2022-10-11T01:12:31.443Z,41.09
2022-10-11T01:13:31.473Z,41.41
2022-10-11T01:14:31.441Z,41.57
2022-10-11T01:15:31.409Z,43.02
2022-10-11T01:16:31.393Z,41.57
2022-10-11T01:17:31.409Z,49.15
2022-10-11T01:18:31.419Z,42.70
2022-10-11T01:19:31.378Z,42.86
2022-10-11T01:20:31.341Z,43.99
2022-10-11T01:21:31.328Z,41.73
2022-10-11T01:22:31.336Z,41.41
2022-10-11T01:23:31.338Z,42.70
2022-10-11T01:24:31.348Z,43.51
2022-10-11T01:25:31.458Z,41.73
2022-10-11T01:26:31.409Z,46.89
2022-10-11T01:27:31.264Z,47.05
2022-10-11T01:28:31.345Z,41.41
2022-10-11T01:29:31.255Z,44.15
2022-10-11T01:30:31.297Z,49.47
2022-10-11T01:31:31.245Z,61.39
2022-10-11T01:32:31.224Z,41.57
2022-10-11T01:33:31.246Z,42.38
2022-10-11T01:34:31.215Z,41.09
2022-10-11T01:35:31.192Z,48.02
2022-10-11T01:36:31.220Z,45.12
2022-10-11T01:37:31.181Z,46.41
2022-10-11T01:38:31.181Z,53.66
2022-10-11T01:39:31.140Z,47.86
2022-10-11T01:40:31.141Z,43.99
2022-10-11T01:41:31.129Z,48.66
2022-10-11T01:42:31.215Z,47.37
2022-10-11T01:43:31.120Z,45.92
2022-10-11T01:44:31.163Z,48.66
2022-10-11T01:45:31.095Z,44.15
2022-10-11T01:46:31.096Z,58.49
2022-10-11T01:47:31.084Z,47.05
2022-10-11T01:48:31.049Z,46.25
2022-10-11T01:49:31.066Z,46.57
2022-10-11T01:50:31.033Z,45.60
2022-10-11T01:51:31.061Z,48.02
2022-10-11T01:52:31.019Z,46.08
2022-10-11T01:53:31.025Z,51.24
2022-10-11T01:54:49.947Z,45.60
2022-10-11T01:55:31.042Z,41.41
2022-10-11T01:56:31.007Z,42.06
2022-10-11T01:57:30.987Z,44.15
2022-10-11T01:58:30.966Z,48.98
2022-10-11T01:59:30.966Z,43.99
2022-10-11T02:00:30.940Z,39.96
2022-10-11T02:01:31.064Z,41.09
2022-10-11T02:02:30.977Z,42.38
2022-10-11T02:03:30.909Z,42.38
2022-10-11T02:04:30.896Z,47.86
2022-10-11T02:05:30.879Z,48.98
2022-10-11T02:06:30.918Z,45.92
2022-10-11T02:07:30.868Z,48.50
2022-10-11T02:08:30.861Z,44.79
2022-10-11T02:09:30.865Z,52.53
2022-10-11T02:10:30.833Z,43.18
2022-10-11T02:11:30.847Z,44.96
2022-10-11T02:12:30.844Z,41.73
2022-10-11T02:13:30.806Z,48.02
2022-10-11T02:14:30.798Z,46.08
2022-10-11T02:15:30.773Z,40.93
2022-10-11T02:16:30.771Z,45.44
2022-10-11T02:17:30.797Z,93.94
2022-10-11T02:18:30.749Z,43.83
2022-10-11T02:19:30.755Z,50.76
2022-10-11T02:20:30.742Z,51.08
2022-10-11T02:21:30.721Z,45.92
2022-10-11T02:22:30.732Z,47.05
2022-10-11T02:23:30.727Z,49.47
2022-10-11T02:24:30.720Z,49.15
2022-10-11T02:25:30.673Z,59.62
2022-10-11T02:26:30.677Z,40.28
2022-10-11T02:27:30.655Z,40.61
2022-10-11T02:28:30.707Z,50.27
2022-10-11T02:29:30.638Z,42.54
2022-10-11T02:30:30.629Z,43.67
2022-10-11T02:31:30.661Z,41.57
2022-10-11T02:32:30.638Z,61.87
2022-10-11T02:33:30.617Z,57.69
2022-10-11T02:34:30.616Z,41.09
2022-10-11T02:35:30.576Z,40.93
2022-10-11T02:36:30.600Z,43.18
2022-10-11T02:37:30.597Z,44.47
2022-10-11T02:38:30.599Z,64.61
2022-10-11T02:39:30.542Z,46.08
2022-10-11T02:40:30.526Z,42.86
2022-10-11T02:41:30.519Z,45.44
2022-10-11T02:42:30.523Z,40.93
2022-10-11T02:43:30.528Z,49.63
2022-10-11T02:44:30.491Z,47.86
2022-10-11T02:45:30.555Z,48.50
2022-10-11T02:46:30.476Z,51.88
2022-10-11T02:47:30.464Z,40.77
2022-10-11T02:48:30.473Z,44.31
2022-10-11T02:49:30.475Z,50.43
2022-10-11T02:50:30.428Z,45.76
2022-10-11T02:51:30.440Z,39.48
2022-10-11T02:52:30.469Z,62.52
2022-10-11T02:53:30.406Z,50.27
2022-10-11T02:54:30.430Z,54.46
2022-10-11T02:55:30.387Z,42.38
2022-10-11T02:56:30.409Z,49.79
2022-10-11T02:57:30.385Z,51.40
2022-10-11T02:58:30.347Z,49.15
2022-10-11T02:59:30.336Z,45.76
2022-10-11T03:00:30.565Z,43.83
2022-10-11T03:01:30.395Z,43.67
2022-10-11T03:02:30.353Z,45.76
2022-10-11T03:03:30.317Z,64.13
2022-10-11T03:04:30.317Z,47.05
2022-10-11T03:05:30.297Z,59.78
2022-10-11T03:06:30.273Z,60.42
2022-10-11T03:07:30.258Z,66.55
2022-10-11T03:08:30.288Z,55.75
2022-10-11T03:09:30.270Z,53.50
2022-10-11T03:10:30.272Z,47.21
2022-10-11T03:11:30.270Z,46.41
2022-10-11T03:12:30.222Z,55.91
2022-10-11T03:13:30.193Z,56.40
2022-10-11T03:14:30.204Z,43.83
2022-10-11T03:15:30.212Z,45.92
2022-10-11T03:16:30.214Z,47.05
2022-10-11T03:17:37.715Z,48.34
2022-10-11T03:18:30.174Z,46.73
2022-10-11T03:19:30.160Z,51.08
2022-10-11T03:20:30.143Z,46.89
2022-10-11T03:21:30.179Z,47.21
2022-10-11T03:22:30.174Z,60.10
2022-10-11T03:23:30.098Z,51.08
2022-10-11T03:24:30.084Z,60.75
2022-10-11T03:25:30.083Z,83.79
2022-10-11T03:26:30.112Z,72.19
2022-10-11T03:27:30.097Z,51.08
2022-10-11T03:28:30.101Z,50.92
2022-10-11T03:29:30.056Z,48.34
2022-10-11T03:30:30.023Z,60.75
2022-10-11T03:31:30.026Z,52.53
2022-10-11T03:32:30.024Z,56.88
2022-10-11T03:33:29.997Z,53.98
2022-10-11T03:34:29.985Z,56.24
2022-10-11T03:35:29.976Z,56.56
2022-10-11T03:36:29.964Z,54.79
2022-10-11T03:37:29.984Z,60.10
2022-10-11T03:38:29.970Z,61.39
2022-10-11T03:39:29.935Z,50.60
2022-10-11T03:40:29.962Z,60.42
2022-10-11T03:41:29.933Z,61.55
2022-10-11T03:42:30.120Z,56.24
2022-10-11T03:43:29.920Z,52.69
2022-10-11T03:44:29.903Z,54.62
2022-10-11T03:45:29.921Z,54.95
2022-10-11T03:46:29.863Z,59.46
2022-10-11T03:47:29.894Z,59.94
2022-10-11T03:48:29.893Z,53.66
2022-10-11T03:49:29.853Z,56.24
2022-10-11T03:50:29.842Z,63.49
2022-10-11T03:51:29.826Z,61.39
2022-10-11T03:52:29.811Z,57.04
2022-10-11T03:53:29.900Z,55.91
2022-10-11T03:54:29.798Z,47.86
2022-10-11T03:55:29.802Z,45.76
2022-10-11T03:56:29.788Z,54.62
2022-10-11T03:57:30.526Z,50.27
2022-10-11T03:58:29.754Z,60.59
2022-10-11T03:59:29.774Z,53.17
2022-10-11T04:00:30.661Z,47.37
2022-10-11T04:01:29.750Z,55.27
2022-10-11T04:02:29.731Z,61.71
2022-10-11T04:03:29.733Z,55.27
2022-10-11T04:04:29.724Z,59.46
2022-10-11T04:05:29.681Z,72.35
2022-10-11T04:06:29.673Z,58.01
2022-10-11T04:07:29.682Z,59.94
2022-10-11T04:08:29.675Z,60.10
2022-10-11T04:09:29.690Z,55.27
2022-10-11T04:10:29.611Z,58.01
2022-10-11T04:11:29.666Z,59.94
2022-10-11T04:12:29.619Z,67.19
2022-10-11T04:13:29.592Z,59.30
2022-10-11T04:14:29.602Z,54.30
2022-10-11T04:15:29.597Z,61.55
2022-10-11T04:16:29.549Z,59.78
2022-10-11T04:17:29.828Z,59.78
2022-10-11T04:18:29.530Z,61.55
2022-10-11T04:19:29.540Z,64.13
2022-10-11T04:20:29.544Z,56.40
2022-10-11T04:21:29.527Z,57.52
2022-10-11T04:22:29.520Z,56.88
2022-10-11T04:23:29.627Z,59.94
2022-10-11T04:24:29.482Z,53.50
2022-10-11T04:25:29.508Z,52.53
2022-10-11T04:26:29.467Z,53.82
2022-10-11T04:27:29.478Z,57.36
2022-10-11T04:28:29.472Z,51.40
2022-10-11T04:29:32.590Z,63.49
2022-10-11T04:30:29.403Z,61.07
2022-10-11T04:31:29.393Z,58.97
2022-10-11T04:32:29.412Z,61.39
2022-10-11T04:33:29.425Z,63.65
2022-10-11T04:34:29.351Z,77.02
2022-10-11T04:35:29.373Z,56.56
2022-10-11T04:36:29.352Z,69.29
2022-10-11T04:37:29.345Z,53.33
2022-10-11T04:38:29.392Z,55.27
2022-10-11T04:39:29.369Z,59.14
2022-10-11T04:40:29.275Z,65.90
2022-10-11T04:41:29.319Z,60.75
2022-10-11T04:42:29.287Z,50.43
2022-10-11T04:43:29.283Z,65.74
2022-10-11T04:44:29.315Z,65.10
2022-10-11T04:45:29.298Z,56.56
2022-10-11T04:46:29.488Z,60.91
2022-10-11T04:47:29.251Z,49.47
2022-10-11T04:48:30.051Z,62.04
2022-10-11T04:49:29.217Z,61.87
2022-10-11T04:50:29.253Z,68.32
2022-10-11T04:51:29.220Z,58.65
2022-10-11T04:52:29.212Z,56.88
2022-10-11T04:53:29.302Z,62.36
2022-10-11T04:54:29.159Z,58.97
2022-10-11T04:55:29.116Z,67.03
2022-10-11T04:56:29.155Z,63.97
2022-10-11T04:57:29.165Z,69.29
2022-10-11T04:58:29.137Z,69.13
2022-10-11T04:59:29.107Z,66.23
2022-10-11T05:00:29.109Z,65.26
2022-10-11T05:01:29.128Z,63.81
2022-10-11T05:02:29.197Z,68.48
2022-10-11T05:03:29.118Z,68.64
2022-10-11T05:04:30.081Z,67.84
2022-10-11T05:05:29.075Z,61.71
2022-10-11T05:06:29.045Z,62.20
2022-10-11T05:07:29.335Z,57.85
2022-10-11T05:08:29.013Z,69.29
2022-10-11T05:09:29.043Z,68.64
2022-10-11T05:10:28.997Z,66.06
2022-10-11T05:11:29.242Z,64.61
2022-10-11T05:12:28.973Z,68.48
2022-10-11T05:13:29.015Z,68.16
2022-10-11T05:14:28.998Z,61.23
2022-10-11T05:15:28.993Z,72.51
2022-10-11T05:16:29.707Z,62.84
2022-10-11T05:17:29.143Z,56.56
2022-10-11T05:18:28.880Z,64.94
2022-10-11T05:19:28.979Z,65.74
2022-10-11T05:20:28.900Z,61.23
2022-10-11T05:21:28.981Z,59.94
2022-10-11T05:22:28.871Z,64.29
2022-10-11T05:23:28.848Z,63.49
2022-10-11T05:24:28.883Z,64.78
2022-10-11T05:25:28.909Z,65.26
2022-10-11T05:26:28.895Z,60.42
2022-10-11T05:27:28.837Z,56.40
2022-10-11T05:28:28.802Z,67.84
2022-10-11T05:29:28.827Z,63.65
2022-10-11T05:30:28.779Z,61.55
2022-10-11T05:31:28.734Z,60.75
2022-10-11T05:32:28.724Z,59.94
2022-10-11T05:33:28.745Z,61.55
2022-10-11T05:34:29.013Z,64.13
2022-10-11T05:35:28.729Z,75.25
2022-10-11T05:36:28.711Z,65.74
2022-10-11T05:37:28.687Z,70.58
2022-10-11T05:38:28.856Z,72.03
2022-10-11T05:39:28.685Z,63.49
2022-10-11T05:40:28.672Z,68.48
2022-10-11T05:41:28.647Z,64.61
2022-10-11T05:42:28.625Z,71.06
2022-10-11T05:43:28.700Z,64.45
2022-10-11T05:44:28.603Z,61.71
2022-10-11T05:45:28.687Z,61.87
2022-10-11T05:46:28.585Z,69.61
2022-10-11T05:47:28.658Z,59.46
2022-10-11T05:48:28.615Z,69.61
2022-10-11T05:49:28.587Z,68.00
2022-10-11T05:50:28.619Z,63.65
2022-10-11T05:51:28.548Z,59.78
2022-10-11T05:52:28.567Z,58.81
2022-10-11T05:53:28.512Z,58.65
2022-10-11T05:54:28.516Z,67.84
2022-10-11T05:55:28.535Z,66.71
2022-10-11T05:56:28.554Z,65.58
2022-10-11T05:57:28.511Z,74.44
2022-10-11T05:58:28.504Z,67.84
2022-10-11T05:59:28.795Z,65.10
2022-10-11T06:00:28.531Z,59.46
2022-10-11T06:01:28.567Z,72.03
2022-10-11T06:02:28.440Z,55.91
2022-10-11T06:03:28.436Z,68.16
2022-10-11T06:04:28.395Z,63.81
2022-10-11T06:05:28.400Z,68.32
2022-10-11T06:06:28.404Z,66.06
2022-10-11T06:07:28.400Z,67.35
2022-10-11T06:08:28.394Z,62.04
2022-10-11T06:09:28.361Z,64.45
2022-10-11T06:10:28.458Z,59.94
2022-10-11T06:11:28.388Z,59.94
2022-10-11T06:12:28.335Z,70.25
2022-10-11T06:13:28.336Z,58.81
2022-10-11T06:14:28.333Z,67.03
2022-10-11T06:15:28.315Z,69.61
2022-10-11T06:16:28.346Z,60.91
2022-10-11T06:17:28.632Z,72.19
2022-10-11T06:18:28.298Z,62.20
2022-10-11T06:19:28.293Z,65.26
2022-10-11T06:20:28.416Z,68.64
2022-10-11T06:21:28.250Z,65.90
2022-10-11T06:22:28.218Z,68.80
2022-10-11T06:23:28.218Z,65.58
2022-10-11T06:24:28.196Z,61.39
2022-10-11T06:25:28.211Z,73.48
2022-10-11T06:26:28.174Z,67.35
2022-10-11T06:27:28.215Z,65.74
2022-10-11T06:28:28.264Z,65.42
2022-10-11T06:29:28.185Z,61.87
2022-10-11T06:30:28.241Z,63.49
2022-10-11T06:31:29.841Z,72.19
2022-10-11T06:32:29.748Z,68.48
2022-10-11T06:33:28.188Z,66.06
2022-10-11T06:34:28.116Z,63.33
2022-10-11T06:35:28.746Z,64.94
2022-10-11T06:36:28.123Z,72.03
2022-10-11T06:37:28.124Z,68.96
2022-10-11T06:38:28.035Z,69.61
2022-10-11T06:39:28.091Z,69.61
2022-10-11T06:40:28.063Z,60.59
2022-10-11T06:41:28.039Z,73.15
2022-10-11T06:42:29.627Z,68.32
2022-10-11T06:43:28.652Z,61.23
2022-10-11T06:44:29.706Z,63.33
2022-10-11T06:45:28.047Z,61.23
2022-10-11T06:46:28.670Z,63.65
2022-10-11T06:47:27.963Z,66.23
2022-10-11T06:48:28.624Z,64.29
2022-10-11T06:49:27.927Z,70.25
2022-10-11T06:50:54.296Z,71.70
2022-10-11T06:51:27.951Z,68.64
2022-10-11T06:52:28.618Z,68.32
2022-10-11T06:53:27.902Z,67.68
2022-10-11T06:54:27.957Z,63.33
2022-10-11T06:55:29.002Z,66.06
2022-10-11T06:56:28.099Z,60.91
2022-10-11T06:57:27.880Z,73.80
2022-10-11T06:58:27.887Z,64.13
2022-10-11T06:59:27.915Z,63.49
2022-10-11T07:00:27.983Z,73.15
2022-10-11T07:01:27.995Z,58.01
2022-10-11T07:02:27.890Z,70.58
2022-10-11T07:03:28.769Z,71.38
2022-10-11T07:04:27.930Z,65.26
2022-10-11T07:05:27.804Z,57.36
2022-10-11T07:06:28.001Z,68.96
2022-10-11T07:07:27.773Z,68.32
2022-10-11T07:08:27.745Z,61.39
2022-10-11T07:09:27.765Z,60.26
2022-10-11T07:10:27.734Z,59.30
2022-10-11T07:11:27.794Z,63.97
2022-10-11T07:12:27.748Z,63.16
2022-10-11T07:13:27.750Z,66.06
2022-10-11T07:14:27.688Z,61.07
2022-10-11T07:15:31.696Z,67.19
2022-10-11T07:16:27.663Z,76.38
2022-10-11T07:17:27.767Z,63.00
2022-10-11T07:18:27.635Z,64.29
2022-10-11T07:19:27.645Z,62.52
2022-10-11T07:20:27.643Z,66.55
2022-10-11T07:21:27.608Z,65.42
2022-10-11T07:22:27.641Z,56.24
2022-10-11T07:23:27.663Z,71.54
2022-10-11T07:24:27.651Z,65.58
2022-10-11T07:25:27.578Z,63.97
2022-10-11T07:26:27.594Z,66.06
2022-10-11T07:27:27.620Z,58.97
2022-10-11T07:28:27.693Z,67.51
2022-10-11T07:29:31.425Z,58.65
2022-10-11T07:30:27.860Z,60.91
2022-10-11T07:31:27.514Z,61.71
2022-10-11T07:32:27.526Z,66.06
2022-10-11T07:33:28.195Z,60.10
2022-10-11T07:34:27.472Z,63.16
2022-10-11T07:35:27.487Z,59.78
2022-10-11T07:36:27.501Z,64.61
2022-10-11T07:37:27.496Z,63.16
2022-10-11T07:38:27.493Z,58.81
2022-10-11T07:39:31.254Z,60.91
2022-10-11T07:40:27.433Z,69.77
2022-10-11T07:41:27.412Z,68.16
2022-10-11T07:42:27.399Z,56.56
2022-10-11T07:43:27.424Z,70.74
2022-10-11T07:44:27.407Z,69.13
2022-10-11T07:45:27.372Z,62.36
2022-10-11T07:46:27.397Z,67.51
2022-10-11T07:47:27.370Z,63.00
2022-10-11T07:48:27.382Z,65.58
2022-10-11T07:49:27.330Z,71.54
2022-10-11T07:50:27.354Z,61.39
2022-10-11T07:51:27.384Z,73.48
2022-10-11T07:52:28.981Z,70.42
2022-10-11T07:53:27.324Z,69.13
2022-10-11T07:54:27.303Z,68.96
2022-10-11T07:55:27.391Z,60.26
2022-10-11T07:56:27.372Z,61.39
2022-10-11T07:57:27.354Z,66.71
2022-10-11T07:58:28.185Z,70.74
2022-10-11T07:59:29.357Z,63.65
2022-10-11T08:00:27.283Z,64.78
2022-10-11T08:01:27.378Z,63.65
2022-10-11T08:02:27.191Z,61.23
2022-10-11T08:03:27.177Z,64.45
2022-10-11T08:04:27.181Z,61.87
2022-10-11T08:05:27.294Z,72.67
2022-10-11T08:06:27.170Z,65.90
2022-10-11T08:07:27.134Z,60.91
2022-10-11T08:08:27.156Z,64.61
2022-10-11T08:09:28.744Z,59.94
2022-10-11T08:10:27.162Z,61.55
2022-10-11T08:11:27.124Z,63.33
2022-10-11T08:12:28.741Z,69.77
2022-10-11T08:13:27.129Z,59.14
2022-10-11T08:14:27.166Z,60.26
2022-10-11T08:15:27.094Z,63.97
2022-10-11T08:16:28.729Z,60.42
2022-10-11T08:17:27.106Z,67.51
2022-10-11T08:18:27.078Z,68.16
2022-10-11T08:19:27.017Z,63.81
2022-10-11T08:20:27.039Z,60.91
2022-10-11T08:21:27.053Z,65.90
2022-10-11T08:22:27.146Z,59.62
2022-10-11T08:23:26.979Z,67.84
2022-10-11T08:24:27.112Z,60.10
2022-10-11T08:25:27.037Z,64.45
2022-10-11T08:26:26.999Z,67.84
2022-10-11T08:27:28.708Z,63.49
2022-10-11T08:28:27.011Z,71.70
2022-10-11T08:29:26.931Z,65.26
2022-10-11T08:30:26.936Z,64.61
2022-10-11T08:31:26.896Z,63.49
2022-10-11T08:32:26.971Z,63.97
2022-10-11T08:33:28.567Z,70.09
2022-10-11T08:34:28.516Z,59.78
2022-10-11T08:35:26.881Z,68.64
2022-10-11T08:36:26.884Z,67.35
2022-10-11T08:37:26.871Z,69.77
2022-10-11T08:38:27.190Z,61.71
2022-10-11T08:39:26.883Z,60.10
2022-10-11T08:40:28.619Z,64.13
2022-10-11T08:41:26.808Z,66.87
2022-10-11T08:42:26.816Z,64.29
2022-10-11T08:43:26.783Z,59.94
2022-10-11T08:44:26.811Z,61.07
2022-10-11T08:45:26.830Z,59.46
2022-10-11T08:46:26.790Z,68.00
2022-10-11T08:47:26.787Z,64.13
2022-10-11T08:48:26.760Z,63.49
2022-10-11T08:49:26.764Z,64.13
2022-10-11T08:50:26.841Z,63.81
2022-10-11T08:51:26.785Z,60.59
2022-10-11T08:52:26.759Z,77.50
2022-10-11T08:53:26.735Z,60.42
2022-10-11T08:54:26.720Z,62.04
2022-10-11T08:55:26.769Z,58.65
2022-10-11T08:56:26.936Z,63.00
2022-10-11T08:57:28.324Z,64.61
2022-10-11T08:58:26.629Z,61.87
2022-10-11T08:59:26.634Z,86.53
2022-10-11T09:00:26.673Z,67.84
2022-10-11T09:01:26.639Z,66.71
2022-10-11T09:02:31.813Z,60.75
2022-10-11T09:03:26.607Z,64.61
2022-10-11T09:04:26.604Z,60.59
2022-10-11T09:05:26.602Z,60.75
2022-10-11T09:06:26.571Z,68.48
2022-10-11T09:07:26.570Z,60.10
2022-10-11T09:08:26.551Z,58.97
2022-10-11T09:09:26.544Z,72.51
2022-10-11T09:10:26.553Z,66.87
2022-10-11T09:11:26.503Z,63.81
2022-10-11T09:12:30.978Z,63.65
2022-10-11T09:13:26.503Z,57.52
2022-10-11T09:14:26.566Z,61.39
2022-10-11T09:15:26.527Z,65.58
2022-10-11T09:16:26.517Z,58.97
2022-10-11T09:17:26.514Z,67.35
2022-10-11T09:18:27.331Z,69.61
2022-10-11T09:19:26.451Z,63.65
2022-10-11T09:20:26.496Z,64.13
2022-10-11T09:21:26.490Z,69.29
2022-10-11T09:22:30.416Z,63.33
2022-10-11T09:23:26.440Z,69.13
2022-10-11T09:24:26.386Z,74.12
2022-10-11T09:25:26.369Z,73.80
2022-10-11T09:26:26.371Z,66.87
2022-10-11T09:27:57.251Z,68.48
2022-10-11T09:28:26.400Z,61.23
2022-10-11T09:29:26.390Z,63.00
2022-10-11T09:30:26.411Z,63.97
2022-10-11T09:31:26.363Z,64.29
2022-10-11T09:32:26.324Z,63.49
2022-10-11T09:33:26.296Z,60.42
2022-10-11T09:34:26.287Z,61.23
2022-10-11T09:35:27.195Z,56.72
2022-10-11T09:36:26.313Z,64.13
2022-10-11T09:37:26.565Z,63.33
2022-10-11T09:38:26.271Z,62.36
2022-10-11T09:39:26.222Z,63.49
2022-10-11T09:40:26.290Z,69.45
2022-10-11T09:41:26.192Z,70.25
2022-10-11T09:42:26.246Z,71.06
2022-10-11T09:43:26.180Z,58.17
2022-10-11T09:44:26.177Z,65.10
2022-10-11T09:45:26.193Z,58.81
2022-10-11T09:46:26.178Z,69.13
2022-10-11T09:47:26.216Z,68.80
2022-10-11T09:48:26.123Z,61.39
2022-10-11T09:49:26.148Z,60.10
2022-10-11T09:50:26.129Z,66.39
2022-10-11T09:51:26.143Z,66.23
2022-10-11T09:52:26.103Z,61.23
2022-10-11T09:53:26.218Z,63.33
2022-10-11T09:54:26.068Z,60.91
2022-10-11T09:55:26.082Z,60.75
2022-10-11T09:56:26.050Z,67.84
2022-10-11T09:57:26.049Z,60.42
2022-10-11T09:58:26.048Z,68.96
2022-10-11T09:59:26.009Z,61.87
2022-10-11T10:00:26.004Z,68.64
2022-10-11T10:01:26.020Z,60.59
2022-10-11T10:02:26.755Z,63.81
2022-10-11T10:03:26.710Z,63.97
2022-10-11T10:04:26.003Z,61.07
2022-10-11T10:05:25.957Z,64.29
2022-10-11T10:06:25.991Z,59.94
2022-10-11T10:07:26.025Z,66.71
2022-10-11T10:08:25.934Z,67.03
2022-10-11T10:09:25.922Z,63.65
2022-10-11T10:10:25.918Z,60.91
2022-10-11T10:11:25.886Z,62.20
2022-10-11T10:12:27.535Z,64.78
2022-10-11T10:13:25.866Z,63.49
2022-10-11T10:14:27.504Z,60.42
2022-10-11T10:15:26.186Z,66.06
2022-10-11T10:16:26.178Z,63.49
2022-10-11T10:17:25.857Z,62.52
2022-10-11T10:18:25.832Z,61.55
2022-10-11T10:19:25.839Z,66.06
2022-10-11T10:20:25.846Z,68.00
2022-10-11T10:21:25.814Z,68.80
2022-10-11T10:22:25.834Z,62.52
2022-10-11T10:23:25.783Z,61.39
2022-10-11T10:24:25.778Z,63.00
2022-10-11T10:25:25.784Z,63.81
2022-10-11T10:26:26.431Z,75.41
2022-10-11T10:27:25.807Z,69.13
2022-10-11T10:28:25.871Z,73.48
2022-10-11T10:29:25.725Z,61.23
2022-10-11T10:30:25.708Z,64.61
2022-10-11T10:31:25.733Z,64.94
2022-10-11T10:32:27.820Z,62.52
2022-10-11T10:33:25.688Z,59.62
2022-10-11T10:34:25.681Z,59.30
2022-10-11T10:35:25.712Z,62.52
2022-10-11T10:36:25.650Z,63.49
2022-10-11T10:37:25.647Z,60.75
2022-10-11T10:38:26.858Z,66.55
2022-10-11T10:39:25.609Z,71.70
2022-10-11T10:40:25.631Z,70.25
2022-10-11T10:41:25.583Z,63.16
2022-10-11T10:42:25.635Z,58.33
2022-10-11T10:43:25.635Z,62.52
2022-10-11T10:44:25.590Z,64.29
2022-10-11T10:45:25.565Z,61.71
2022-10-11T10:46:25.554Z,67.68
2022-10-11T10:47:25.529Z,63.97
2022-10-11T10:48:25.539Z,63.00
2022-10-11T10:50:25.563Z,73.48
2022-10-11T10:51:25.504Z,66.06
2022-10-11T10:52:25.472Z,70.74
2022-10-11T10:53:25.479Z,66.71
2022-10-11T10:54:25.494Z,64.61
2022-10-11T10:55:25.461Z,66.23
2022-10-11T10:56:25.446Z,72.99
2022-10-11T10:57:25.452Z,69.77
2022-10-11T10:58:25.475Z,66.55
2022-10-11T10:59:25.433Z,66.87
2022-10-11T11:00:25.416Z,64.94
2022-10-11T11:01:25.494Z,60.10
2022-10-11T11:02:40.184Z,68.16
2022-10-11T11:03:25.378Z,62.20
2022-10-11T11:04:25.412Z,58.81
2022-10-11T11:05:25.357Z,60.26
2022-10-11T11:06:25.349Z,65.58
2022-10-11T11:07:25.331Z,59.30
2022-10-11T11:08:25.364Z,71.38
2022-10-11T11:09:25.356Z,61.55
2022-10-11T11:10:25.298Z,62.52
2022-10-11T11:11:25.371Z,69.13
2022-10-11T11:12:25.284Z,69.29
2022-10-11T11:13:25.294Z,70.25
2022-10-11T11:14:25.271Z,68.96
2022-10-11T11:15:32.126Z,89.91
2022-10-11T11:16:25.251Z,71.70
2022-10-11T11:17:25.291Z,66.55
2022-10-11T11:18:25.218Z,65.90
2022-10-11T11:19:25.210Z,68.32
2022-10-11T11:20:25.193Z,69.61
2022-10-11T11:21:25.200Z,65.58
2022-10-11T11:22:28.048Z,62.36
2022-10-11T11:23:25.210Z,63.33
2022-10-11T11:24:25.162Z,66.55
2022-10-11T11:25:25.158Z,70.09
2022-10-11T11:26:25.124Z,65.26
2022-10-11T11:27:25.128Z,62.68
2022-10-11T11:28:25.185Z,72.19
2022-10-11T11:29:26.871Z,62.84
2022-10-11T11:30:25.127Z,59.94
2022-10-11T11:31:25.193Z,61.39
2022-10-11T11:32:25.103Z,63.33
2022-10-11T11:33:25.104Z,65.90
2022-10-11T11:34:25.052Z,62.68
2022-10-11T11:35:25.043Z,67.51
2022-10-11T11:36:25.028Z,73.80
2022-10-11T11:37:25.039Z,60.26
2022-10-11T11:38:29.440Z,59.94
2022-10-11T11:39:25.027Z,68.80
2022-10-11T11:40:25.796Z,63.00
2022-10-11T11:41:25.154Z,66.23
2022-10-11T11:42:25.000Z,59.94
2022-10-11T11:43:24.973Z,61.71
2022-10-11T11:44:27.445Z,60.91
2022-10-11T11:45:24.953Z,60.59
2022-10-11T11:46:25.249Z,56.72
2022-10-11T11:47:25.038Z,65.10
2022-10-11T11:48:24.985Z,68.32
2022-10-11T11:49:24.924Z,57.20
2022-10-11T11:50:24.927Z,62.20
2022-10-11T11:51:27.781Z,64.61
2022-10-11T11:52:24.876Z,61.71
2022-10-11T11:53:24.894Z,55.27
2022-10-11T11:54:25.151Z,57.36
2022-10-11T11:55:24.866Z,70.58
2022-10-11T11:56:25.102Z,60.26
2022-10-11T11:57:24.853Z,67.84
2022-10-11T11:58:24.857Z,62.04
2022-10-11T11:59:24.848Z,57.20
2022-10-11T12:00:24.809Z,66.39
2022-10-11T12:01:30.285Z,63.16
2022-10-11T12:02:25.080Z,64.78
2022-10-11T12:03:24.869Z,61.87
2022-10-11T12:04:24.778Z,72.03
2022-10-11T12:05:24.790Z,82.50
2022-10-11T12:06:24.731Z,77.67
2022-10-11T12:07:25.157Z,77.18
2022-10-11T12:08:24.775Z,75.57
2022-10-11T12:09:24.765Z,75.25
2022-10-11T12:10:24.779Z,75.09
2022-10-11T12:11:24.736Z,80.73
2022-10-11T12:12:24.677Z,74.12
2022-10-11T12:13:27.313Z,66.71
2022-10-11T12:14:24.704Z,62.20
2022-10-11T12:15:24.670Z,63.33
2022-10-11T12:16:24.633Z,75.09
2022-10-11T12:17:24.655Z,64.45
2022-10-11T12:18:24.664Z,56.40
2022-10-11T12:19:24.616Z,68.16
2022-10-11T12:20:24.605Z,60.91
2022-10-11T12:21:24.585Z,56.24
2022-10-11T12:22:24.595Z,58.17
2022-10-11T12:23:24.602Z,69.77
2022-10-11T12:24:24.611Z,68.16
2022-10-11T12:25:24.567Z,63.00
2022-10-11T12:26:24.592Z,65.10
2022-10-11T12:27:24.580Z,65.74
2022-10-11T12:28:24.586Z,67.03
2022-10-11T12:29:28.466Z,65.26
2022-10-11T12:30:24.554Z,62.84
2022-10-11T12:31:24.555Z,60.91
2022-10-11T12:32:24.522Z,67.19
2022-10-11T12:33:24.605Z,65.10
2022-10-11T12:34:24.480Z,64.78
2022-10-11T12:35:24.478Z,68.96
2022-10-11T12:36:24.506Z,65.26
2022-10-11T12:37:25.323Z,61.07
2022-10-11T12:38:24.507Z,55.75
2022-10-11T12:39:24.439Z,63.65
2022-10-11T12:40:24.534Z,66.71
2022-10-11T12:41:24.480Z,58.01
2022-10-11T12:42:25.575Z,58.01
2022-10-11T12:43:24.413Z,60.91
2022-10-11T12:44:24.377Z,61.55
2022-10-11T12:45:26.240Z,62.52
2022-10-11T12:46:24.702Z,60.59
2022-10-11T12:47:24.415Z,60.26
2022-10-11T12:48:27.456Z,67.19
2022-10-11T12:49:24.536Z,69.29
2022-10-11T12:50:24.352Z,63.65
2022-10-11T12:51:24.379Z,60.10
2022-10-11T12:52:25.302Z,62.20
2022-10-11T12:53:24.284Z,59.46